Portada
METAR-TAF:

METAR-TAF

Aeropuertos :

Albenga, Italia

latitud: 44-03N, longitud: 008-07E, altitud: 45 m

Observación

El informe se hizo hace 3 horas y 20 minutos, a las 16:50 UTC
Viento calma
Temperatura 8°C
Humedad 100%
Presión 1011 hPa
Visibilidad: 6000 m
Cielo cubierto a una altura de 2000 ft

METAR: LIMG 211650Z 00000KT 6000 OVC020 08/08 Q1011

Hora: 21:10 (20:10 UTC)


TAF: falta

Observaciones y pronósticos meteorológicos de más de 4000 aeropuertos (mensajes METAR y TAF).

Los puntos amarillos y rojos representan las estaciones disponibles.

Ponga el ratón en el punto deseado para ver el nombre de la estación.

Haga clic para ver las observaciones y los pronósticos meteorológicos.

Para cambiar el mapa : haga clic en los botones verdes con una cruz de color negro para hacer un zoom, en el botón verde con un guión para alejar o en las flechas verdes para mapas adyacentes.


METAR-TAF: